Terminal Aerodrome Forecast
Issued by NWS Sterling, VA

Current Version | Previous Version | Graphics & Text | Print | Product List | Glossary On
Versions: 1 2 3 4 5 6 7 8 9 10 11 12 13 14 15 16 17 18 19 20 21 22 23 24 25 26 27 28 29 30 31 32 33 34
945
FTUS41 KLWX 251139
TAFMRB
TAF
KMRB 251139Z 2512/2612 VRB04KT 3SM -SHRA BR OVC004
     FM251500 17006KT 5SM -SHRA BR BKN020 OVC035
     FM251800 22010G19KT P6SM SCT030 OVC050
     FM252000 27011G20KT P6SM SCT050 BKN070
     FM260000 30005KT P6SM SCT100 BKN250=

USA.gov is the U.S. government's official web portal to all federal, state and local government web resources and services.